Ituzaingo, Argentina
Current Conditions -  °F | °C
As of 7:00 PM on Thursday 20 Nov 2014 (Local Time) from SARP Reporting Station
Broken Clouds Broken Clouds  
Wind Chill: 79°   Ceiling: 20000
Heat Index: 81°   Visibility: 6mi
Dew Point: 68°   Wind: 9mph
Humidity: 69%   Direction: 140°SE
Pressure: 29.8"   Gusts: NA
Location:  27.6°S, 56.68°W
Report Text: SARP 202200Z 14008KT 9999 SCT035TCU SCT100BKN200 26/20 Q1009
Loading
Personal Weather Stations






























Interactive Weather Map New forecast layout! Learn more

10-Day Weather Forecast

Advertisements
Track Severe Weather on mobile